Terminal Aerodrome Forecast
Issued by NWS

Home | Current Version | Previous Version | Text Only | Print | Product List | Glossary On
Versions: 1 2 3 4 5 6 7 8 9 10 11 12
000
FTAK31 PAJN 271100
TAFAWG
TAF
PAWG 271140Z 2712/2812 11008KT P6SM VCSH BKN050 BKN080
     FM272000 14010KT P6SM VCSH SCT050 BKN100
     FM280200 14010KT P6SM SCT050 SCT100
     FM280500 14007KT 5SM BR SCT010 SCT100
      AMD LTD TO CLD VIS AND WIND 2712/2715=

USA.gov is the U.S. government's official web portal to all federal, state and local government web resources and services.